Quaker Maid — WDC8413 — position and weather

sailwx.info

Track history (hours):
 
Tides and Currents Weather Stations Pressure Air Temp Water Temp Dewpoint Dewpoint Depression Visibility Wind Speed Wind Dir Waves Ship Positions

Quaker Maid

Owner: ZARLENGO, DANNY F, Petersburg, AK. More information available from US FCC via Universal Licensing System and Coast Guard Vessel Documentation Center.

Last reported at 2018-Jun-17 00:56 UTC. Time now 2018-Jun-18 21:13 UTC.
Position N 54°26' W 130°37'.

Length 24 m.

Type: Fishing. MMSI: 367086640.

Date/timePositionNaut miles runAvg speedWind from/ knotsBaromVisibWave heightAir tempDewpointWater temp
2018-Jun-17 00:56N 54°26' W 130°37'4 8.7
2018-Jun-17 00:30N 54°22' W 130°35'4 8.3
2018-Jun-17 00:00N 54°18' W 130°33'4 8.3
2018-Jun-16 23:30N 54°14' W 130°30'4 8.4
2018-Jun-16 23:00N 54°11' W 130°28'4 7.8
2018-Jun-16 22:30N 54°08' W 130°23'4 8.1
2018-Jun-16 22:00N 54°05' W 130°18'5 9.1
2018-Jun-16 21:30N 54°01' W 130°13'4 8.6
2018-Jun-16 20:59N 53°57' W 130°11'4 8.2
2018-Jun-16 20:30N 53°54' W 130°07'130 6.9
2018-Jun-16 01:40N 52°06' W 128°07'1 8.6
2018-Jun-16 01:30N 52°05' W 128°05'6 6.8
2018-Jun-16 00:36N 52°02' W 127°56'2 7.2
2018-Jun-16 00:17N 52°00' W 127°56'4 7.3
2018-Jun-15 23:42N 51°56' W 127°56'2 7.3
2018-Jun-15 23:29N 51°54' W 127°56'4 7.7
2018-Jun-15 23:00N 51°50' W 127°56'4 7.9
2018-Jun-15 22:30N 51°47' W 127°56'4 7.5
2018-Jun-15 22:00N 51°43' W 127°55'4 7.1
2018-Jun-15 21:30N 51°39' W 127°55'4 7.2
2018-Jun-15 21:00N 51°36' W 127°53'45 6.2
2018-Jun-15 13:43N 50°51' W 127°46'2 8.2
2018-Jun-15 13:25N 50°50' W 127°42'4 8.1
2018-Jun-15 12:59N 50°49' W 127°37'4 8.8
2018-Jun-15 12:30N 50°47' W 127°30'90 8.1
2018-Jun-15 01:24N 50°10' W 125°21'2 5.4
2018-Jun-15 01:00N 50°08' W 125°21'3 6.5
2018-Jun-15 00:30N 50°06' W 125°17'3 5.5
2018-Jun-15 00:00N 50°03' W 125°14'2 3.5
2018-Jun-14 23:25N 50°01' W 125°13'6 3.7
2018-Jun-14 21:54N 49°57' W 125°08'11 8.5
2018-Jun-14 20:36N 49°49' W 124°55'1 8.1
2018-Jun-14 20:28N 49°48' W 124°54'83 8.2
2018-Jun-14 10:20N 48°59' W 123°13'25 6.3
2018-Jun-14 06:19N 48°35' W 123°02'2 7.4
2018-Jun-14 06:00N 48°33' W 122°59'3 5.5
2018-Jun-14 05:30N 48°31' W 122°57'40 6.9
2018-Jun-13 23:46N 47°55' W 122°30'2 6.4
2018-Jun-13 23:30N 47°54' W 122°29'4 7.2
2018-Jun-13 23:00N 47°51' W 122°27'5 7.4
2018-Jun-13 22:20N 47°46' W 122°26'2 7.2
2018-Jun-13 22:00N 47°43' W 122°25'3 6.5
2018-Jun-13 21:29N 47°40' W 122°24'1 1.3
2018-Jun-13 21:00N 47°40' W 122°23'1 1.5
2018-Jun-13 20:29N 47°39' W 122°22'0 0.0
2018-Jun-13 19:59N 47°39' W 122°22'0 0.0
2018-Jun-13 19:29N 47°39' W 122°22'0 0.0
2018-Jun-13 18:59N 47°39' W 122°22'0 0.0
2018-Jun-13 18:29N 47°39' W 122°22'0 0.0
2018-Jun-13 17:56N 47°39' W 122°22'0 0.0
2018-Jun-13 17:29N 47°39' W 122°22'0 0.0
2018-Jun-13 16:59N 47°39' W 122°22'0 0.0
2018-Jun-13 16:29N 47°39' W 122°22'0 0.0
2018-Jun-13 15:59N 47°39' W 122°22'0 0.0
2018-Jun-13 15:26N 47°39' W 122°22'0 0.0
2018-Jun-13 14:59N 47°39' W 122°22'0 0.0
2018-Jun-13 14:29N 47°39' W 122°22'0 0.0
2018-Jun-13 13:59N 47°39' W 122°22'0 0.0
2018-Jun-13 13:29N 47°39' W 122°22'0 0.0
2018-Jun-13 12:59N 47°39' W 122°22'0 0.0
2018-Jun-13 12:29N 47°39' W 122°22'0 0.0
2018-Jun-13 11:59N 47°39' W 122°22'0 0.0
2018-Jun-13 11:29N 47°39' W 122°22'0 0.0
2018-Jun-13 10:59N 47°39' W 122°22'0 0.0
2018-Jun-13 10:29N 47°39' W 122°22'0 0.0
2018-Jun-13 09:59N 47°39' W 122°22'0 0.0
2018-Jun-13 09:29N 47°39' W 122°22'0 0.0
2018-Jun-13 08:59N 47°39' W 122°22'0 0.0
2018-Jun-13 08:29N 47°39' W 122°22'0 0.0
2018-Jun-13 07:59N 47°39' W 122°22'0 0.0
2018-Jun-13 07:29N 47°39' W 122°22'0 0.0
2018-Jun-13 06:59N 47°39' W 122°22'0 0.0
2018-Jun-13 06:29N 47°39' W 122°22'0 0.0
2018-Jun-13 05:59N 47°39' W 122°22'0 0.0
2018-Jun-13 05:29N 47°39' W 122°22'0 0.0
2018-Jun-13 04:59N 47°39' W 122°22'0 0.0
2018-Jun-13 04:26N 47°39' W 122°22'0 0.0
2018-Jun-13 03:59N 47°39' W 122°22'0 0.0
2018-Jun-13 03:29N 47°39' W 122°22'0 0.0
2018-Jun-13 02:59N 47°39' W 122°22'0 0.0
2018-Jun-13 02:29N 47°39' W 122°22'0 0.0
2018-Jun-13 01:59N 47°39' W 122°22'0 0.0
2018-Jun-13 01:29N 47°39' W 122°22'0 0.0
2018-Jun-13 00:59N 47°39' W 122°22'0 0.0
2018-Jun-13 00:29N 47°39' W 122°22'0 0.0
2018-Jun-12 23:59N 47°39' W 122°22'0 0.0
2018-Jun-12 23:29N 47°39' W 122°22'0 0.0
2018-Jun-12 22:59N 47°39' W 122°22'0 0.0
2018-Jun-12 22:29N 47°39' W 122°22'0 0.0
2018-Jun-12 21:59N 47°39' W 122°22'0 0.0
2018-Jun-12 21:29N 47°39' W 122°22'0 0.0
2018-Jun-12 20:59N 47°39' W 122°22'0 0.0
2018-Jun-12 20:29N 47°39' W 122°22'0 0.0
2018-Jun-12 19:59N 47°39' W 122°22'0 0.0
2018-Jun-12 19:29N 47°39' W 122°22'0 0.0
2018-Jun-12 18:59N 47°39' W 122°22'0 0.0
2018-Jun-12 18:29N 47°39' W 122°22'0 0.0
2018-Jun-12 17:59N 47°39' W 122°22'0 0.0
2018-Jun-12 17:29N 47°39' W 122°22'0 0.0
2018-Jun-12 16:59N 47°39' W 122°22'0 0.0
2018-Jun-12 16:29N 47°39' W 122°22'0 0.0
2018-Jun-12 15:59N 47°39' W 122°22'0 0.0
2018-Jun-12 15:29N 47°39' W 122°22'0 0.0
2018-Jun-12 14:59N 47°39' W 122°22'0 0.0
2018-Jun-12 14:29N 47°39' W 122°22'0 0.0
2018-Jun-12 13:59N 47°39' W 122°22'0 0.0
2018-Jun-12 13:20N 47°39' W 122°22'0 0.0
2018-Jun-12 12:56N 47°39' W 122°22'0 0.0
2018-Jun-12 12:23N 47°39' W 122°22'0 0.0
2018-Jun-12 11:59N 47°39' W 122°22'0 0.0
2018-Jun-12 11:29N 47°39' W 122°22'0 0.0
2018-Jun-12 10:59N 47°39' W 122°22'0 0.0
2018-Jun-12 10:29N 47°39' W 122°22'0 0.0
2018-Jun-12 09:59N 47°39' W 122°22'0 0.0
2018-Jun-12 09:29N 47°39' W 122°22'0 0.0
2018-Jun-12 08:59N 47°39' W 122°22'0 0.0
2018-Jun-12 08:29N 47°39' W 122°22'0 0.0
2018-Jun-12 07:59N 47°39' W 122°22'0 0.0
2018-Jun-12 07:29N 47°39' W 122°22'0 0.0
2018-Jun-12 06:59N 47°39' W 122°22'0 0.0
2018-Jun-12 06:29N 47°39' W 122°22'0 0.0
2018-Jun-12 05:59N 47°39' W 122°22'0 0.0
2018-Jun-12 05:29N 47°39' W 122°22'0 0.0
2018-Jun-12 04:56N 47°39' W 122°22'0 0.0
2018-Jun-12 04:29N 47°39' W 122°22'0 0.0
2018-Jun-12 03:59N 47°39' W 122°22'0 0.0
2018-Jun-12 03:29N 47°39' W 122°22'0 0.0
2018-Jun-12 02:59N 47°39' W 122°22'0 0.0
2018-Jun-12 02:26N 47°39' W 122°22'0 0.0
2018-Jun-12 01:59N 47°39' W 122°22'0 0.0
2018-Jun-12 01:29N 47°39' W 122°22'0 0.0
2018-Jun-12 00:59N 47°39' W 122°22'0 0.0
2018-Jun-12 00:29N 47°39' W 122°22'0 0.0
2018-Jun-11 23:59N 47°39' W 122°22'0 0.0
2018-Jun-11 23:29N 47°39' W 122°22'0 0.0
2018-Jun-11 22:59N 47°39' W 122°22'0 0.0
2018-Jun-11 22:29N 47°39' W 122°22'0 0.0
2018-Jun-11 21:56N 47°39' W 122°22'0 0.0
2018-Jun-11 21:26N 47°39' W 122°22'0 0.0
2018-Jun-11 20:59N 47°39' W 122°22'0 0.0
2018-Jun-11 20:29N 47°39' W 122°22'0 0.0
2018-Jun-11 19:59N 47°39' W 122°22'0 0.0
2018-Jun-11 19:29N 47°39' W 122°22'0 0.0
2018-Jun-11 18:59N 47°39' W 122°22'0 0.0
2018-Jun-11 18:29N 47°39' W 122°22'0 0.0
2018-Jun-11 17:59N 47°39' W 122°22'0 0.0
2018-Jun-11 17:29N 47°39' W 122°22'0 0.0
2018-Jun-11 16:59N 47°39' W 122°22'0 0.0
2018-Jun-11 16:29N 47°39' W 122°22'0 0.0
2018-Jun-11 15:59N 47°39' W 122°22'0 0.0
2018-Jun-11 15:29N 47°39' W 122°22'0 0.0
2018-Jun-11 14:59N 47°39' W 122°22'0 0.0
2018-Jun-11 14:29N 47°39' W 122°22'0 0.0
2018-Jun-11 13:59N 47°39' W 122°22'0 0.0
2018-Jun-11 13:29N 47°39' W 122°22'0 0.0
2018-Jun-11 12:56N 47°39' W 122°22'0 0.0
2018-Jun-11 12:29N 47°39' W 122°22'0 0.0
2018-Jun-11 11:59N 47°39' W 122°22'0 0.0
2018-Jun-11 11:29N 47°39' W 122°22'0 0.0
2018-Jun-11 10:59N 47°39' W 122°22'0 0.0
2018-Jun-11 10:30N 47°39' W 122°22'0 0.0
2018-Jun-11 09:59N 47°39' W 122°22'0 0.0
2018-Jun-11 09:29N 47°39' W 122°22'0 0.0
2018-Jun-11 08:59N 47°39' W 122°22'0 0.0
2018-Jun-11 08:29N 47°39' W 122°22'0 0.0
2018-Jun-11 07:59N 47°39' W 122°22'0 0.0
2018-Jun-11 07:29N 47°39' W 122°22'0 0.0
2018-Jun-11 06:59N 47°39' W 122°22'0 0.0
2018-Jun-11 06:29N 47°39' W 122°22'0 0.0
2018-Jun-11 05:59N 47°39' W 122°22'0 0.0
2018-Jun-11 05:29N 47°39' W 122°22'0 0.0
2018-Jun-11 04:59N 47°39' W 122°22'0 0.0
2018-Jun-11 04:29N 47°39' W 122°22'0 0.0
2018-Jun-11 03:59N 47°39' W 122°22'0 0.0
2018-Jun-11 03:29N 47°39' W 122°22'0 0.0
2018-Jun-11 02:59N 47°39' W 122°22'0 0.0
2018-Jun-11 02:29N 47°39' W 122°22'0 0.0
2018-Jun-11 01:59N 47°39' W 122°22'0 0.0
2018-Jun-11 01:29N 47°39' W 122°22'0 0.0
2018-Jun-11 00:59N 47°39' W 122°22'0 0.0
2018-Jun-11 00:29N 47°39' W 122°22'0 0.0
2018-Jun-10 23:59N 47°39' W 122°22'0 0.0
2018-Jun-10 23:29N 47°39' W 122°22'0 0.0
2018-Jun-10 22:59N 47°39' W 122°22'0 0.0
2018-Jun-10 22:29N 47°39' W 122°22'0 0.0
2018-Jun-10 21:59N 47°39' W 122°22'0 0.0
2018-Jun-10 21:29N 47°39' W 122°22'0 0.0
2018-Jun-10 20:59N 47°39' W 122°22'0 0.0
2018-Jun-10 20:29N 47°39' W 122°22'0 0.0
2018-Jun-10 19:56N 47°39' W 122°22'0 0.0
2018-Jun-10 19:29N 47°39' W 122°22'0 0.0
2018-Jun-10 18:59N 47°39' W 122°22'0 0.0
2018-Jun-10 18:29N 47°39' W 122°22'0 0.0
2018-Jun-10 17:59N 47°39' W 122°22'0 0.0
2018-Jun-10 17:29N 47°39' W 122°22'0 0.0
2018-Jun-10 16:59N 47°39' W 122°22'0 0.0
2018-Jun-10 16:29N 47°39' W 122°22'0 0.0
2018-Jun-10 15:59N 47°39' W 122°22'0 0.0
2018-Jun-10 15:29N 47°39' W 122°22'0 0.0
2018-Jun-10 14:59N 47°39' W 122°22'0 0.0
2018-Jun-10 14:29N 47°39' W 122°22'0 0.0
2018-Jun-10 13:29N 47°39' W 122°22'0 0.0
2018-Jun-10 12:59N 47°39' W 122°22'0 0.0
2018-Jun-10 12:29N 47°39' W 122°22'0 0.0
2018-Jun-10 11:59N 47°39' W 122°22'0 0.0
2018-Jun-10 11:29N 47°39' W 122°22'0 0.0
2018-Jun-10 10:59N 47°39' W 122°22'0 0.0
2018-Jun-10 10:29N 47°39' W 122°22'0 0.0
2018-Jun-10 09:59N 47°39' W 122°22'0 0.0
2018-Jun-10 09:29N 47°39' W 122°22'0 0.0
2018-Jun-10 08:59N 47°39' W 122°22'0 0.0
2018-Jun-10 08:29N 47°39' W 122°22'0 0.0
2018-Jun-10 07:59N 47°39' W 122°22'0 0.0
2018-Jun-10 07:29N 47°39' W 122°22'0 0.0
2018-Jun-10 06:59N 47°39' W 122°22'0 0.0
2018-Jun-10 06:29N 47°39' W 122°22'0 0.0
2018-Jun-10 05:59N 47°39' W 122°22'0 0.0
2018-Jun-10 05:29N 47°39' W 122°22'0 0.0
2018-Jun-10 04:59N 47°39' W 122°22'0 0.0
2018-Jun-10 04:29N 47°39' W 122°22'0 0.0
2018-Jun-10 03:56N 47°39' W 122°22'0 0.0
2018-Jun-10 03:29N 47°39' W 122°22'0 0.0
2018-Jun-10 02:59N 47°39' W 122°22'0 0.0
2018-Jun-10 02:29N 47°39' W 122°22'0 0.0
2018-Jun-10 01:59N 47°39' W 122°22'0 0.0
2018-Jun-10 01:29N 47°39' W 122°22'0 0.0
2018-Jun-10 00:59N 47°39' W 122°22'0 0.0
2018-Jun-10 00:29N 47°39' W 122°22'0 0.0
2018-Jun-09 23:59N 47°39' W 122°22'0 0.0
2018-Jun-09 23:29N 47°39' W 122°22'0 0.0
2018-Jun-09 22:59N 47°39' W 122°22'0 0.0
2018-Jun-09 22:29N 47°39' W 122°22'0 0.0
2018-Jun-09 21:59N 47°39' W 122°22'0 0.0
2018-Jun-09 21:29N 47°39' W 122°22'0 0.0
2018-Jun-09 20:59N 47°39' W 122°22'0 0.0
2018-Jun-09 20:29N 47°39' W 122°22'0 0.0
2018-Jun-09 19:59N 47°39' W 122°22'0 0.0
2018-Jun-09 19:29N 47°39' W 122°22'0 0.0
2018-Jun-09 18:59N 47°39' W 122°22'0 0.0
2018-Jun-09 18:29N 47°39' W 122°22'0 0.0
2018-Jun-09 17:59N 47°39' W 122°22'0 0.0
2018-Jun-09 17:29N 47°39' W 122°22'0 0.0
2018-Jun-09 16:56N 47°39' W 122°22'1 1.6
2018-Jun-09 16:29N 47°40' W 122°23'0 0.0
2018-Jun-09 15:59N 47°40' W 122°23'0 0.0
2018-Jun-09 15:29N 47°40' W 122°23'0 0.0
2018-Jun-09 14:26N 47°40' W 122°23'0 0.0
2018-Jun-09 13:58N 47°40' W 122°23'1 1.5
2018-Jun-09 13:29N 47°39' W 122°22'0 0.0
2018-Jun-09 13:00N 47°39' W 122°22'0 0.0
2018-Jun-09 12:30N 47°39' W 122°22'0 0.0
2018-Jun-09 11:56N 47°39' W 122°22'0 0.0
2018-Jun-09 11:29N 47°39' W 122°22'0 0.0
2018-Jun-09 10:59N 47°39' W 122°22'0 0.0
2018-Jun-09 10:29N 47°39' W 122°22'0 0.0
2018-Jun-09 09:59N 47°39' W 122°22'0 0.0
2018-Jun-09 09:29N 47°39' W 122°22'0 0.0
2018-Jun-09 08:59N 47°39' W 122°22'0 0.0
2018-Jun-09 08:30N 47°39' W 122°22'0 0.0
2018-Jun-09 07:59N 47°39' W 122°22'0 0.0
2018-Jun-09 07:26N 47°39' W 122°22'0 0.0
2018-Jun-09 06:59N 47°39' W 122°22'0 0.0
2018-Jun-09 06:29N 47°39' W 122°22'0 0.0
2018-Jun-09 05:59N 47°39' W 122°22'0 0.0
2018-Jun-09 05:26N 47°39' W 122°22'0 0.0
2018-Jun-09 04:59N 47°39' W 122°22'0 0.0
2018-Jun-09 04:29N 47°39' W 122°22'0 0.0
2018-Jun-09 03:59N 47°39' W 122°22'0 0.0
2018-Jun-09 03:29N 47°39' W 122°22'0 0.0
2018-Jun-09 02:59N 47°39' W 122°22'0 0.0
2018-Jun-09 02:23N 47°39' W 122°22'0 0.0
2018-Jun-09 01:56N 47°39' W 122°22'0 0.0
2018-Jun-09 01:29N 47°39' W 122°22'0 0.0
2018-Jun-09 00:59N 47°39' W 122°22'0 0.0
2018-Jun-09 00:29N 47°39' W 122°22'0 0.0
2018-Jun-08 23:59N 47°39' W 122°22'0 0.0
2018-Jun-08 23:29N 47°39' W 122°22'0 0.0
2018-Jun-08 22:59N 47°39' W 122°22'0 0.0
2018-Jun-08 22:29N 47°39' W 122°22'0 0.0
2018-Jun-08 21:59N 47°39' W 122°22'0 0.0
2018-Jun-08 21:29N 47°39' W 122°22'0 0.0
2018-Jun-08 20:59N 47°39' W 122°22'0 0.0
2018-Jun-08 20:29N 47°39' W 122°22'0 0.0
2018-Jun-08 19:59N 47°39' W 122°22'0 0.0
2018-Jun-08 19:29N 47°39' W 122°22'0 0.0
2018-Jun-08 18:59N 47°39' W 122°22'0 0.0
2018-Jun-08 18:30N 47°39' W 122°22'0 0.0
2018-Jun-08 17:59N 47°39' W 122°22'0 0.0
2018-Jun-08 17:29N 47°39' W 122°22'0 0.0
2018-Jun-08 16:59N 47°39' W 122°22'0 0.0
2018-Jun-08 16:29N 47°39' W 122°22'0 0.0
2018-Jun-08 15:59N 47°39' W 122°22'0 0.0
2018-Jun-08 15:29N 47°39' W 122°22'0 0.0
2018-Jun-08 14:59N 47°39' W 122°22'0 0.0
2018-Jun-08 14:29N 47°39' W 122°22'0 0.0
2018-Jun-08 13:59N 47°39' W 122°22'0 0.0
2018-Jun-08 13:26N 47°39' W 122°22'0 0.0
2018-Jun-08 12:47N 47°39' W 122°22'0 0.0
2018-Jun-08 12:29N 47°39' W 122°22'0 0.0
2018-Jun-08 11:59N 47°39' W 122°22'0 0.0
2018-Jun-08 11:29N 47°39' W 122°22'0 0.0
2018-Jun-08 10:59N 47°39' W 122°22'0 0.0
2018-Jun-08 10:29N 47°39' W 122°22'0 0.0
2018-Jun-08 09:59N 47°39' W 122°22'0 0.0
2018-Jun-08 09:29N 47°39' W 122°22'0 0.0
2018-Jun-08 08:59N 47°39' W 122°22'0 0.0
2018-Jun-08 08:29N 47°39' W 122°22'0 0.0
2018-Jun-08 07:59N 47°39' W 122°22'0 0.0
2018-Jun-08 07:29N 47°39' W 122°22'0 0.0
2018-Jun-08 06:59N 47°39' W 122°22'0 0.0
2018-Jun-08 06:29N 47°39' W 122°22'0 0.0
2018-Jun-08 05:59N 47°39' W 122°22'0 0.0
2018-Jun-08 05:29N 47°39' W 122°22'0 0.0
2018-Jun-08 04:59N 47°39' W 122°22'0 0.0
2018-Jun-08 04:29N 47°39' W 122°22'0 0.0
2018-Jun-08 03:59N 47°39' W 122°22'0 0.0
2018-Jun-08 03:29N 47°39' W 122°22'0 0.0
2018-Jun-08 03:00N 47°39' W 122°22'0 0.0
2018-Jun-08 02:30N 47°39' W 122°22'0 0.0
2018-Jun-08 01:57N 47°39' W 122°22'0 0.0
2018-Jun-08 01:30N 47°39' W 122°22'0 0.0
2018-Jun-08 01:00N 47°39' W 122°22'0 0.0
2018-Jun-08 00:30N 47°39' W 122°22'0 0.0
2018-Jun-07 23:57N 47°39' W 122°22'0 0.0
2018-Jun-07 23:30N 47°39' W 122°22'0 0.0
2018-Jun-07 23:00N 47°39' W 122°22'0 0.0
2018-Jun-07 22:30N 47°39' W 122°22'0 0.0
2018-Jun-07 22:00N 47°39' W 122°22'0 0.0
2018-Jun-07 21:30N 47°39' W 122°22'0 0.0
2018-Jun-07 21:00N 47°39' W 122°22'0 0.0
2018-Jun-07 20:30N 47°39' W 122°22'0 0.0
2018-Jun-07 20:00N 47°39' W 122°22'0 0.0
2018-Jun-07 19:30N 47°39' W 122°22'0 0.0
2018-Jun-07 19:00N 47°39' W 122°22'0 0.0
2018-Jun-07 18:30N 47°39' W 122°22'0 0.0
2018-Jun-07 18:00N 47°39' W 122°22'0 0.0
2018-Jun-07 17:30N 47°39' W 122°22'0 0.0
2018-Jun-07 17:00N 47°39' W 122°22'0 0.0
2018-Jun-07 16:30N 47°39' W 122°22'0 0.0
2018-Jun-07 16:00N 47°39' W 122°22'0 0.0
2018-Jun-07 15:30N 47°39' W 122°22'0 0.0
2018-Jun-07 15:00N 47°39' W 122°22'0 0.0
2018-Jun-07 14:30N 47°39' W 122°22'0 0.0
2018-Jun-07 14:00N 47°39' W 122°22'0 0.0
2018-Jun-07 13:29N 47°39' W 122°22'0 0.0
2018-Jun-07 12:59N 47°39' W 122°22'0 0.0
2018-Jun-07 12:29N 47°39' W 122°22'0 0.0
2018-Jun-07 12:00N 47°39' W 122°22'0 0.0
2018-Jun-07 11:30N 47°39' W 122°22'0 0.0
2018-Jun-07 11:00N 47°39' W 122°22'0 0.0
2018-Jun-07 10:29N 47°39' W 122°22'0 0.0
2018-Jun-07 09:57N 47°39' W 122°22'0 0.0
2018-Jun-07 09:30N 47°39' W 122°22'0 0.0
2018-Jun-07 09:00N 47°39' W 122°22'0 0.0
2018-Jun-07 08:30N 47°39' W 122°22'0 0.0
2018-Jun-07 08:00N 47°39' W 122°22'0 0.0
2018-Jun-07 07:29N 47°39' W 122°22'0 0.0
2018-Jun-07 07:00N 47°39' W 122°22'0 0.0
2018-Jun-07 06:29N 47°39' W 122°22'0 0.0
2018-Jun-07 05:47N 47°39' W 122°22'0 0.0
2018-Jun-07 05:29N 47°39' W 122°22'0 0.0
2018-Jun-07 04:59N 47°39' W 122°22'0 0.0
2018-Jun-07 04:29N 47°39' W 122°22'0 0.0
2018-Jun-07 03:59N 47°39' W 122°22'0 0.0
2018-Jun-07 03:30N 47°39' W 122°22'0 0.0
2018-Jun-07 03:00N 47°39' W 122°22'0 0.0
2018-Jun-07 02:30N 47°39' W 122°22'0 0.0
2018-Jun-07 02:00N 47°39' W 122°22'0 0.0
2018-Jun-07 01:27N 47°39' W 122°22'0 0.0
2018-Jun-07 00:56N 47°39' W 122°22'  
Track history (hours):
 
Tides and Currents Weather Stations Pressure Air Temp Water Temp Dewpoint Dewpoint Depression Visibility Wind Speed Wind Dir Waves Ship Positions

Quaker Maid

Owner: ZARLENGO, DANNY F, Petersburg, AK. More information available from US FCC via Universal Licensing System and Coast Guard Vessel Documentation Center.

Last reported at 2018-Jun-17 00:56 UTC. Time now 2018-Jun-18 21:13 UTC.
Position N 54°26' W 130°37'.

Length 24 m.

Type: Fishing. MMSI: 367086640.

Date/timePositionNaut miles runAvg speedWind from/ knotsBaromVisibWave heightAir tempDewpointWater temp
2018-Jun-17 00:56N 54°26' W 130°37'4 8.7
2018-Jun-17 00:30N 54°22' W 130°35'4 8.3
2018-Jun-17 00:00N 54°18' W 130°33'4 8.3
2018-Jun-16 23:30N 54°14' W 130°30'4 8.4
2018-Jun-16 23:00N 54°11' W 130°28'4 7.8
2018-Jun-16 22:30N 54°08' W 130°23'4 8.1
2018-Jun-16 22:00N 54°05' W 130°18'5 9.1
2018-Jun-16 21:30N 54°01' W 130°13'4 8.6
2018-Jun-16 20:59N 53°57' W 130°11'4 8.2
2018-Jun-16 20:30N 53°54' W 130°07'130 6.9
2018-Jun-16 01:40N 52°06' W 128°07'1 8.6
2018-Jun-16 01:30N 52°05' W 128°05'6 6.8
2018-Jun-16 00:36N 52°02' W 127°56'2 7.2
2018-Jun-16 00:17N 52°00' W 127°56'4 7.3
2018-Jun-15 23:42N 51°56' W 127°56'2 7.3
2018-Jun-15 23:29N 51°54' W 127°56'4 7.7
2018-Jun-15 23:00N 51°50' W 127°56'4 7.9
2018-Jun-15 22:30N 51°47' W 127°56'4 7.5
2018-Jun-15 22:00N 51°43' W 127°55'4 7.1
2018-Jun-15 21:30N 51°39' W 127°55'4 7.2
2018-Jun-15 21:00N 51°36' W 127°53'45 6.2
2018-Jun-15 13:43N 50°51' W 127°46'2 8.2
2018-Jun-15 13:25N 50°50' W 127°42'4 8.1
2018-Jun-15 12:59N 50°49' W 127°37'4 8.8
2018-Jun-15 12:30N 50°47' W 127°30'90 8.1
2018-Jun-15 01:24N 50°10' W 125°21'2 5.4
2018-Jun-15 01:00N 50°08' W 125°21'3 6.5
2018-Jun-15 00:30N 50°06' W 125°17'3 5.5
2018-Jun-15 00:00N 50°03' W 125°14'2 3.5
2018-Jun-14 23:25N 50°01' W 125°13'6 3.7
2018-Jun-14 21:54N 49°57' W 125°08'11 8.5
2018-Jun-14 20:36N 49°49' W 124°55'1 8.1
2018-Jun-14 20:28N 49°48' W 124°54'83 8.2
2018-Jun-14 10:20N 48°59' W 123°13'25 6.3
2018-Jun-14 06:19N 48°35' W 123°02'2 7.4
2018-Jun-14 06:00N 48°33' W 122°59'3 5.5
2018-Jun-14 05:30N 48°31' W 122°57'40 6.9
2018-Jun-13 23:46N 47°55' W 122°30'2 6.4
2018-Jun-13 23:30N 47°54' W 122°29'4 7.2
2018-Jun-13 23:00N 47°51' W 122°27'5 7.4
2018-Jun-13 22:20N 47°46' W 122°26'2 7.2
2018-Jun-13 22:00N 47°43' W 122°25'3 6.5
2018-Jun-13 21:29N 47°40' W 122°24'1 1.3
2018-Jun-13 21:00N 47°40' W 122°23'1 1.5
2018-Jun-13 20:29N 47°39' W 122°22'0 0.0
2018-Jun-13 19:59N 47°39' W 122°22'0 0.0
2018-Jun-13 19:29N 47°39' W 122°22'0 0.0
2018-Jun-13 18:59N 47°39' W 122°22'0 0.0
2018-Jun-13 18:29N 47°39' W 122°22'0 0.0
2018-Jun-13 17:56N 47°39' W 122°22'0 0.0
2018-Jun-13 17:29N 47°39' W 122°22'0 0.0
2018-Jun-13 16:59N 47°39' W 122°22'0 0.0
2018-Jun-13 16:29N 47°39' W 122°22'0 0.0
2018-Jun-13 15:59N 47°39' W 122°22'0 0.0
2018-Jun-13 15:26N 47°39' W 122°22'0 0.0
2018-Jun-13 14:59N 47°39' W 122°22'0 0.0
2018-Jun-13 14:29N 47°39' W 122°22'0 0.0
2018-Jun-13 13:59N 47°39' W 122°22'0 0.0
2018-Jun-13 13:29N 47°39' W 122°22'0 0.0
2018-Jun-13 12:59N 47°39' W 122°22'0 0.0
2018-Jun-13 12:29N 47°39' W 122°22'0 0.0
2018-Jun-13 11:59N 47°39' W 122°22'0 0.0
2018-Jun-13 11:29N 47°39' W 122°22'0 0.0
2018-Jun-13 10:59N 47°39' W 122°22'0 0.0
2018-Jun-13 10:29N 47°39' W 122°22'0 0.0
2018-Jun-13 09:59N 47°39' W 122°22'0 0.0
2018-Jun-13 09:29N 47°39' W 122°22'0 0.0
2018-Jun-13 08:59N 47°39' W 122°22'0 0.0
2018-Jun-13 08:29N 47°39' W 122°22'0 0.0
2018-Jun-13 07:59N 47°39' W 122°22'0 0.0
2018-Jun-13 07:29N 47°39' W 122°22'0 0.0
2018-Jun-13 06:59N 47°39' W 122°22'0 0.0
2018-Jun-13 06:29N 47°39' W 122°22'0 0.0
2018-Jun-13 05:59N 47°39' W 122°22'0 0.0
2018-Jun-13 05:29N 47°39' W 122°22'0 0.0
2018-Jun-13 04:59N 47°39' W 122°22'0 0.0
2018-Jun-13 04:26N 47°39' W 122°22'0 0.0
2018-Jun-13 03:59N 47°39' W 122°22'0 0.0
2018-Jun-13 03:29N 47°39' W 122°22'0 0.0
2018-Jun-13 02:59N 47°39' W 122°22'0 0.0
2018-Jun-13 02:29N 47°39' W 122°22'0 0.0
2018-Jun-13 01:59N 47°39' W 122°22'0 0.0
2018-Jun-13 01:29N 47°39' W 122°22'0 0.0
2018-Jun-13 00:59N 47°39' W 122°22'0 0.0
2018-Jun-13 00:29N 47°39' W 122°22'0 0.0
2018-Jun-12 23:59N 47°39' W 122°22'0 0.0
2018-Jun-12 23:29N 47°39' W 122°22'0 0.0
2018-Jun-12 22:59N 47°39' W 122°22'0 0.0
2018-Jun-12 22:29N 47°39' W 122°22'0 0.0
2018-Jun-12 21:59N 47°39' W 122°22'0 0.0
2018-Jun-12 21:29N 47°39' W 122°22'0 0.0
2018-Jun-12 20:59N 47°39' W 122°22'0 0.0
2018-Jun-12 20:29N 47°39' W 122°22'0 0.0
2018-Jun-12 19:59N 47°39' W 122°22'0 0.0
2018-Jun-12 19:29N 47°39' W 122°22'0 0.0
2018-Jun-12 18:59N 47°39' W 122°22'0 0.0
2018-Jun-12 18:29N 47°39' W 122°22'0 0.0
2018-Jun-12 17:59N 47°39' W 122°22'0 0.0
2018-Jun-12 17:29N 47°39' W 122°22'0 0.0
2018-Jun-12 16:59N 47°39' W 122°22'0 0.0
2018-Jun-12 16:29N 47°39' W 122°22'0 0.0
2018-Jun-12 15:59N 47°39' W 122°22'0 0.0
2018-Jun-12 15:29N 47°39' W 122°22'0 0.0
2018-Jun-12 14:59N 47°39' W 122°22'0 0.0
2018-Jun-12 14:29N 47°39' W 122°22'0 0.0
2018-Jun-12 13:59N 47°39' W 122°22'0 0.0
2018-Jun-12 13:20N 47°39' W 122°22'0 0.0
2018-Jun-12 12:56N 47°39' W 122°22'0 0.0
2018-Jun-12 12:23N 47°39' W 122°22'0 0.0
2018-Jun-12 11:59N 47°39' W 122°22'0 0.0
2018-Jun-12 11:29N 47°39' W 122°22'0 0.0
2018-Jun-12 10:59N 47°39' W 122°22'0 0.0
2018-Jun-12 10:29N 47°39' W 122°22'0 0.0
2018-Jun-12 09:59N 47°39' W 122°22'0 0.0
2018-Jun-12 09:29N 47°39' W 122°22'0 0.0
2018-Jun-12 08:59N 47°39' W 122°22'0 0.0
2018-Jun-12 08:29N 47°39' W 122°22'0 0.0
2018-Jun-12 07:59N 47°39' W 122°22'0 0.0
2018-Jun-12 07:29N 47°39' W 122°22'0 0.0
2018-Jun-12 06:59N 47°39' W 122°22'0 0.0
2018-Jun-12 06:29N 47°39' W 122°22'0 0.0
2018-Jun-12 05:59N 47°39' W 122°22'0 0.0
2018-Jun-12 05:29N 47°39' W 122°22'0 0.0
2018-Jun-12 04:56N 47°39' W 122°22'0 0.0
2018-Jun-12 04:29N 47°39' W 122°22'0 0.0
2018-Jun-12 03:59N 47°39' W 122°22'0 0.0
2018-Jun-12 03:29N 47°39' W 122°22'0 0.0
2018-Jun-12 02:59N 47°39' W 122°22'0 0.0
2018-Jun-12 02:26N 47°39' W 122°22'0 0.0
2018-Jun-12 01:59N 47°39' W 122°22'0 0.0
2018-Jun-12 01:29N 47°39' W 122°22'0 0.0
2018-Jun-12 00:59N 47°39' W 122°22'0 0.0
2018-Jun-12 00:29N 47°39' W 122°22'0 0.0
2018-Jun-11 23:59N 47°39' W 122°22'0 0.0
2018-Jun-11 23:29N 47°39' W 122°22'0 0.0
2018-Jun-11 22:59N 47°39' W 122°22'0 0.0
2018-Jun-11 22:29N 47°39' W 122°22'0 0.0
2018-Jun-11 21:56N 47°39' W 122°22'0 0.0
2018-Jun-11 21:26N 47°39' W 122°22'0 0.0
2018-Jun-11 20:59N 47°39' W 122°22'0 0.0
2018-Jun-11 20:29N 47°39' W 122°22'0 0.0
2018-Jun-11 19:59N 47°39' W 122°22'0 0.0
2018-Jun-11 19:29N 47°39' W 122°22'0 0.0
2018-Jun-11 18:59N 47°39' W 122°22'0 0.0
2018-Jun-11 18:29N 47°39' W 122°22'0 0.0
2018-Jun-11 17:59N 47°39' W 122°22'0 0.0
2018-Jun-11 17:29N 47°39' W 122°22'0 0.0
2018-Jun-11 16:59N 47°39' W 122°22'0 0.0
2018-Jun-11 16:29N 47°39' W 122°22'0 0.0
2018-Jun-11 15:59N 47°39' W 122°22'0 0.0
2018-Jun-11 15:29N 47°39' W 122°22'0 0.0
2018-Jun-11 14:59N 47°39' W 122°22'0 0.0
2018-Jun-11 14:29N 47°39' W 122°22'0 0.0
2018-Jun-11 13:59N 47°39' W 122°22'0 0.0
2018-Jun-11 13:29N 47°39' W 122°22'0 0.0
2018-Jun-11 12:56N 47°39' W 122°22'0 0.0
2018-Jun-11 12:29N 47°39' W 122°22'0 0.0
2018-Jun-11 11:59N 47°39' W 122°22'0 0.0
2018-Jun-11 11:29N 47°39' W 122°22'0 0.0
2018-Jun-11 10:59N 47°39' W 122°22'0 0.0
2018-Jun-11 10:30N 47°39' W 122°22'0 0.0
2018-Jun-11 09:59N 47°39' W 122°22'0 0.0
2018-Jun-11 09:29N 47°39' W 122°22'0 0.0
2018-Jun-11 08:59N 47°39' W 122°22'0 0.0
2018-Jun-11 08:29N 47°39' W 122°22'0 0.0
2018-Jun-11 07:59N 47°39' W 122°22'0 0.0
2018-Jun-11 07:29N 47°39' W 122°22'0 0.0
2018-Jun-11 06:59N 47°39' W 122°22'0 0.0
2018-Jun-11 06:29N 47°39' W 122°22'0 0.0
2018-Jun-11 05:59N 47°39' W 122°22'0 0.0
2018-Jun-11 05:29N 47°39' W 122°22'0 0.0
2018-Jun-11 04:59N 47°39' W 122°22'0 0.0
2018-Jun-11 04:29N 47°39' W 122°22'0 0.0
2018-Jun-11 03:59N 47°39' W 122°22'0 0.0
2018-Jun-11 03:29N 47°39' W 122°22'0 0.0
2018-Jun-11 02:59N 47°39' W 122°22'0 0.0
2018-Jun-11 02:29N 47°39' W 122°22'0 0.0
2018-Jun-11 01:59N 47°39' W 122°22'0 0.0
2018-Jun-11 01:29N 47°39' W 122°22'0 0.0
2018-Jun-11 00:59N 47°39' W 122°22'0 0.0
2018-Jun-11 00:29N 47°39' W 122°22'0 0.0
2018-Jun-10 23:59N 47°39' W 122°22'0 0.0
2018-Jun-10 23:29N 47°39' W 122°22'0 0.0
2018-Jun-10 22:59N 47°39' W 122°22'0 0.0
2018-Jun-10 22:29N 47°39' W 122°22'0 0.0
2018-Jun-10 21:59N 47°39' W 122°22'0 0.0
2018-Jun-10 21:29N 47°39' W 122°22'0 0.0
2018-Jun-10 20:59N 47°39' W 122°22'0 0.0
2018-Jun-10 20:29N 47°39' W 122°22'0 0.0
2018-Jun-10 19:56N 47°39' W 122°22'0 0.0
2018-Jun-10 19:29N 47°39' W 122°22'0 0.0
2018-Jun-10 18:59N 47°39' W 122°22'0 0.0
2018-Jun-10 18:29N 47°39' W 122°22'0 0.0
2018-Jun-10 17:59N 47°39' W 122°22'0 0.0
2018-Jun-10 17:29N 47°39' W 122°22'0 0.0
2018-Jun-10 16:59N 47°39' W 122°22'0 0.0
2018-Jun-10 16:29N 47°39' W 122°22'0 0.0
2018-Jun-10 15:59N 47°39' W 122°22'0 0.0
2018-Jun-10 15:29N 47°39' W 122°22'0 0.0
2018-Jun-10 14:59N 47°39' W 122°22'0 0.0
2018-Jun-10 14:29N 47°39' W 122°22'0 0.0
2018-Jun-10 13:29N 47°39' W 122°22'0 0.0
2018-Jun-10 12:59N 47°39' W 122°22'0 0.0
2018-Jun-10 12:29N 47°39' W 122°22'0 0.0
2018-Jun-10 11:59N 47°39' W 122°22'0 0.0
2018-Jun-10 11:29N 47°39' W 122°22'0 0.0
2018-Jun-10 10:59N 47°39' W 122°22'0 0.0
2018-Jun-10 10:29N 47°39' W 122°22'0 0.0
2018-Jun-10 09:59N 47°39' W 122°22'0 0.0
2018-Jun-10 09:29N 47°39' W 122°22'0 0.0
2018-Jun-10 08:59N 47°39' W 122°22'0 0.0
2018-Jun-10 08:29N 47°39' W 122°22'0 0.0
2018-Jun-10 07:59N 47°39' W 122°22'0 0.0
2018-Jun-10 07:29N 47°39' W 122°22'0 0.0
2018-Jun-10 06:59N 47°39' W 122°22'0 0.0
2018-Jun-10 06:29N 47°39' W 122°22'0 0.0
2018-Jun-10 05:59N 47°39' W 122°22'0 0.0
2018-Jun-10 05:29N 47°39' W 122°22'0 0.0
2018-Jun-10 04:59N 47°39' W 122°22'0 0.0
2018-Jun-10 04:29N 47°39' W 122°22'0 0.0
2018-Jun-10 03:56N 47°39' W 122°22'0 0.0
2018-Jun-10 03:29N 47°39' W 122°22'0 0.0
2018-Jun-10 02:59N 47°39' W 122°22'0 0.0
2018-Jun-10 02:29N 47°39' W 122°22'0 0.0
2018-Jun-10 01:59N 47°39' W 122°22'0 0.0
2018-Jun-10 01:29N 47°39' W 122°22'0 0.0
2018-Jun-10 00:59N 47°39' W 122°22'0 0.0
2018-Jun-10 00:29N 47°39' W 122°22'0 0.0
2018-Jun-09 23:59N 47°39' W 122°22'0 0.0
2018-Jun-09 23:29N 47°39' W 122°22'0 0.0
2018-Jun-09 22:59N 47°39' W 122°22'0 0.0
2018-Jun-09 22:29N 47°39' W 122°22'0 0.0
2018-Jun-09 21:59N 47°39' W 122°22'0 0.0
2018-Jun-09 21:29N 47°39' W 122°22'0 0.0
2018-Jun-09 20:59N 47°39' W 122°22'0 0.0
2018-Jun-09 20:29N 47°39' W 122°22'0 0.0
2018-Jun-09 19:59N 47°39' W 122°22'0 0.0
2018-Jun-09 19:29N 47°39' W 122°22'0 0.0
2018-Jun-09 18:59N 47°39' W 122°22'0 0.0
2018-Jun-09 18:29N 47°39' W 122°22'0 0.0
2018-Jun-09 17:59N 47°39' W 122°22'0 0.0
2018-Jun-09 17:29N 47°39' W 122°22'0 0.0
2018-Jun-09 16:56N 47°39' W 122°22'1 1.6
2018-Jun-09 16:29N 47°40' W 122°23'0 0.0
2018-Jun-09 15:59N 47°40' W 122°23'0 0.0
2018-Jun-09 15:29N 47°40' W 122°23'0 0.0
2018-Jun-09 14:26N 47°40' W 122°23'0 0.0
2018-Jun-09 13:58N 47°40' W 122°23'1 1.5
2018-Jun-09 13:29N 47°39' W 122°22'0 0.0
2018-Jun-09 13:00N 47°39' W 122°22'0 0.0
2018-Jun-09 12:30N 47°39' W 122°22'0 0.0
2018-Jun-09 11:56N 47°39' W 122°22'0 0.0
2018-Jun-09 11:29N 47°39' W 122°22'0 0.0
2018-Jun-09 10:59N 47°39' W 122°22'0 0.0
2018-Jun-09 10:29N 47°39' W 122°22'0 0.0
2018-Jun-09 09:59N 47°39' W 122°22'0 0.0
2018-Jun-09 09:29N 47°39' W 122°22'0 0.0
2018-Jun-09 08:59N 47°39' W 122°22'0 0.0
2018-Jun-09 08:30N 47°39' W 122°22'0 0.0
2018-Jun-09 07:59N 47°39' W 122°22'0 0.0
2018-Jun-09 07:26N 47°39' W 122°22'0 0.0
2018-Jun-09 06:59N 47°39' W 122°22'0 0.0
2018-Jun-09 06:29N 47°39' W 122°22'0 0.0
2018-Jun-09 05:59N 47°39' W 122°22'0 0.0
2018-Jun-09 05:26N 47°39' W 122°22'0 0.0
2018-Jun-09 04:59N 47°39' W 122°22'0 0.0
2018-Jun-09 04:29N 47°39' W 122°22'0 0.0
2018-Jun-09 03:59N 47°39' W 122°22'0 0.0
2018-Jun-09 03:29N 47°39' W 122°22'0 0.0
2018-Jun-09 02:59N 47°39' W 122°22'0 0.0
2018-Jun-09 02:23N 47°39' W 122°22'0 0.0
2018-Jun-09 01:56N 47°39' W 122°22'0 0.0
2018-Jun-09 01:29N 47°39' W 122°22'0 0.0
2018-Jun-09 00:59N 47°39' W 122°22'0 0.0
2018-Jun-09 00:29N 47°39' W 122°22'0 0.0
2018-Jun-08 23:59N 47°39' W 122°22'0 0.0
2018-Jun-08 23:29N 47°39' W 122°22'0 0.0
2018-Jun-08 22:59N 47°39' W 122°22'0 0.0
2018-Jun-08 22:29N 47°39' W 122°22'0 0.0
2018-Jun-08 21:59N 47°39' W 122°22'0 0.0
2018-Jun-08 21:29N 47°39' W 122°22'0 0.0
2018-Jun-08 20:59N 47°39' W 122°22'0 0.0
2018-Jun-08 20:29N 47°39' W 122°22'0 0.0
2018-Jun-08 19:59N 47°39' W 122°22'0 0.0
2018-Jun-08 19:29N 47°39' W 122°22'0 0.0
2018-Jun-08 18:59N 47°39' W 122°22'0 0.0
2018-Jun-08 18:30N 47°39' W 122°22'0 0.0
2018-Jun-08 17:59N 47°39' W 122°22'0 0.0
2018-Jun-08 17:29N 47°39' W 122°22'0 0.0
2018-Jun-08 16:59N 47°39' W 122°22'0 0.0
2018-Jun-08 16:29N 47°39' W 122°22'0 0.0
2018-Jun-08 15:59N 47°39' W 122°22'0 0.0
2018-Jun-08 15:29N 47°39' W 122°22'0 0.0
2018-Jun-08 14:59N 47°39' W 122°22'0 0.0
2018-Jun-08 14:29N 47°39' W 122°22'0 0.0
2018-Jun-08 13:59N 47°39' W 122°22'0 0.0
2018-Jun-08 13:26N 47°39' W 122°22'0 0.0
2018-Jun-08 12:47N 47°39' W 122°22'0 0.0
2018-Jun-08 12:29N 47°39' W 122°22'0 0.0
2018-Jun-08 11:59N 47°39' W 122°22'0 0.0
2018-Jun-08 11:29N 47°39' W 122°22'0 0.0
2018-Jun-08 10:59N 47°39' W 122°22'0 0.0
2018-Jun-08 10:29N 47°39' W 122°22'0 0.0
2018-Jun-08 09:59N 47°39' W 122°22'0 0.0
2018-Jun-08 09:29N 47°39' W 122°22'0 0.0
2018-Jun-08 08:59N 47°39' W 122°22'0 0.0
2018-Jun-08 08:29N 47°39' W 122°22'0 0.0
2018-Jun-08 07:59N 47°39' W 122°22'0 0.0
2018-Jun-08 07:29N 47°39' W 122°22'0 0.0
2018-Jun-08 06:59N 47°39' W 122°22'0 0.0
2018-Jun-08 06:29N 47°39' W 122°22'0 0.0
2018-Jun-08 05:59N 47°39' W 122°22'0 0.0
2018-Jun-08 05:29N 47°39' W 122°22'0 0.0
2018-Jun-08 04:59N 47°39' W 122°22'0 0.0
2018-Jun-08 04:29N 47°39' W 122°22'0 0.0
2018-Jun-08 03:59N 47°39' W 122°22'0 0.0
2018-Jun-08 03:29N 47°39' W 122°22'0 0.0
2018-Jun-08 03:00N 47°39' W 122°22'0 0.0
2018-Jun-08 02:30N 47°39' W 122°22'0 0.0
2018-Jun-08 01:57N 47°39' W 122°22'0 0.0
2018-Jun-08 01:30N 47°39' W 122°22'0 0.0
2018-Jun-08 01:00N 47°39' W 122°22'0 0.0
2018-Jun-08 00:30N 47°39' W 122°22'0 0.0
2018-Jun-07 23:57N 47°39' W 122°22'0 0.0
2018-Jun-07 23:30N 47°39' W 122°22'0 0.0
2018-Jun-07 23:00N 47°39' W 122°22'0 0.0
2018-Jun-07 22:30N 47°39' W 122°22'0 0.0
2018-Jun-07 22:00N 47°39' W 122°22'0 0.0
2018-Jun-07 21:30N 47°39' W 122°22'0 0.0
2018-Jun-07 21:00N 47°39' W 122°22'0 0.0
2018-Jun-07 20:30N 47°39' W 122°22'0 0.0
2018-Jun-07 20:00N 47°39' W 122°22'0 0.0
2018-Jun-07 19:30N 47°39' W 122°22'0 0.0
2018-Jun-07 19:00N 47°39' W 122°22'0 0.0
2018-Jun-07 18:30N 47°39' W 122°22'0 0.0
2018-Jun-07 18:00N 47°39' W 122°22'0 0.0
2018-Jun-07 17:30N 47°39' W 122°22'0 0.0
2018-Jun-07 17:00N 47°39' W 122°22'0 0.0
2018-Jun-07 16:30N 47°39' W 122°22'0 0.0
2018-Jun-07 16:00N 47°39' W 122°22'0 0.0
2018-Jun-07 15:30N 47°39' W 122°22'0 0.0
2018-Jun-07 15:00N 47°39' W 122°22'0 0.0
2018-Jun-07 14:30N 47°39' W 122°22'0 0.0
2018-Jun-07 14:00N 47°39' W 122°22'0 0.0
2018-Jun-07 13:29N 47°39' W 122°22'0 0.0
2018-Jun-07 12:59N 47°39' W 122°22'0 0.0
2018-Jun-07 12:29N 47°39' W 122°22'0 0.0
2018-Jun-07 12:00N 47°39' W 122°22'0 0.0
2018-Jun-07 11:30N 47°39' W 122°22'0 0.0
2018-Jun-07 11:00N 47°39' W 122°22'0 0.0
2018-Jun-07 10:29N 47°39' W 122°22'0 0.0
2018-Jun-07 09:57N 47°39' W 122°22'0 0.0
2018-Jun-07 09:30N 47°39' W 122°22'0 0.0
2018-Jun-07 09:00N 47°39' W 122°22'0 0.0
2018-Jun-07 08:30N 47°39' W 122°22'0 0.0
2018-Jun-07 08:00N 47°39' W 122°22'0 0.0
2018-Jun-07 07:29N 47°39' W 122°22'0 0.0
2018-Jun-07 07:00N 47°39' W 122°22'0 0.0
2018-Jun-07 06:29N 47°39' W 122°22'0 0.0
2018-Jun-07 05:47N 47°39' W 122°22'0 0.0
2018-Jun-07 05:29N 47°39' W 122°22'0 0.0
2018-Jun-07 04:59N 47°39' W 122°22'0 0.0
2018-Jun-07 04:29N 47°39' W 122°22'0 0.0
2018-Jun-07 03:59N 47°39' W 122°22'0 0.0
2018-Jun-07 03:30N 47°39' W 122°22'0 0.0
2018-Jun-07 03:00N 47°39' W 122°22'0 0.0
2018-Jun-07 02:30N 47°39' W 122°22'0 0.0
2018-Jun-07 02:00N 47°39' W 122°22'0 0.0
2018-Jun-07 01:27N 47°39' W 122°22'0 0.0
2018-Jun-07 00:56N 47°39' W 122°22'  

Dump ship's entire track history